Time;durP1;ratioP1;P1;durP2;ratioP2;P2;SDS_P1;SDS_P2;PMS_P1;PMS_P2;Temp;Humidity;BMP_temperature;BMP_pressure;BME280_temperature;BME280_humidity;BME280_pressure;Samples;Min_cycle;Max_cycle;Signal;HPM_P1;HPM_P2
2022/01/27 00:02:39;;;;;;;2.80;1.70;;;;;;;11.38;40.79;101814.97;4993623;28;20157;-81
2022/01/27 00:05:16;;;;;;;3.13;1.45;;;;;;;11.32;43.53;101815.59;4982388;28;20049;-86
2022/01/27 00:07:45;;;;;;;3.95;1.48;;;;;;;11.26;42.69;101820.50;4978311;28;20050;-80
2022/01/27 00:10:26;;;;;;;2.13;1.50;;;;;;;11.09;40.13;101813.72;5221180;23;20046;-75
2022/01/27 00:12:55;;;;;;;2.63;1.70;;;;;;;11.06;40.94;101823.94;5019418;28;20088;-74
2022/01/27 00:15:30;;;;;;;2.97;1.50;;;;;;;11.05;41.15;101825.63;5031548;28;20045;-74
2022/01/27 00:18:02;;;;;;;2.50;1.60;;;;;;;11.04;41.35;101826.47;5031796;28;20057;-74
2022/01/27 00:20:32;;;;;;;3.17;1.48;;;;;;;10.97;41.13;101828.69;5015856;28;20045;-74
2022/01/27 00:23:01;;;;;;;1.98;1.38;;;;;;;10.93;40.88;101821.63;5010638;28;20049;-74
2022/01/27 00:25:30;;;;;;;1.98;1.38;;;;;;;10.85;41.85;101824.72;5008366;28;20160;-74
2022/01/27 00:27:58;;;;;;;3.13;1.60;;;;;;;10.76;41.27;101826.03;5024784;28;20049;-74
2022/01/27 00:30:27;;;;;;;2.22;1.33;;;;;;;10.65;41.66;101836.78;5022260;28;20590;-73
2022/01/27 00:32:55;;;;;;;1.85;1.25;;;;;;;10.53;43.33;101825.84;5030629;28;20053;-72
2022/01/27 00:35:24;;;;;;;3.78;1.38;;;;;;;10.45;42.67;101835.84;5019088;28;20518;-72
2022/01/27 00:37:54;;;;;;;3.13;1.42;;;;;;;10.24;43.83;101843.44;5029853;28;20487;-71
2022/01/27 00:40:22;;;;;;;2.15;1.38;;;;;;;9.96;44.28;101823.09;5020970;28;20047;-72
2022/01/27 00:42:51;;;;;;;2.55;1.45;;;;;;;9.90;44.20;101848.66;5021608;28;20144;-73
2022/01/27 00:45:20;;;;;;;3.42;1.27;;;;;;;9.74;45.66;101849.59;5021938;28;20346;-73
2022/01/27 00:47:48;;;;;;;3.70;1.42;;;;;;;9.59;45.26;101849.69;5029097;28;20045;-74
2022/01/27 00:50:18;;;;;;;3.85;1.65;;;;;;;9.42;46.95;101848.84;5023036;28;20404;-75
2022/01/27 00:52:50;;;;;;;4.15;1.77;;;;;;;9.21;46.93;101845.16;5027332;28;20301;-74
2022/01/27 00:55:22;;;;;;;3.00;1.30;;;;;;;9.06;47.27;101842.63;5017690;28;20544;-73
2022/01/27 00:58:04;;;;;;;2.95;1.63;;;;;;;8.95;47.32;101852.38;5019563;28;20710;-73
2022/01/27 01:00:37;;;;;;;3.58;1.30;;;;;;;8.88;48.73;101852.84;5000744;28;20057;-73
2022/01/27 01:03:09;;;;;;;4.40;2.22;;;;;;;8.81;47.83;101856.78;4996750;28;20112;-73
2022/01/27 01:06:03;;;;;;;2.50;1.50;;;;;;;8.75;47.80;101851.31;4995351;28;20050;-72
2022/01/27 01:17:02;;;;;;;3.25;1.80;;;;;;;8.57;50.38;101855.47;5010694;28;20124;-73
2022/01/27 01:19:42;;;;;;;4.13;2.05;;;;;;;8.52;50.62;101850.06;5008706;28;20049;-73
2022/01/27 01:30:35;;;;;;;4.28;2.03;;;;;;;8.08;51.45;101869.03;4991094;28;20081;-73
2022/01/27 01:33:06;;;;;;;3.90;1.67;;;;;;;7.99;52.18;101858.19;4991546;28;20134;-73
2022/01/27 01:35:47;;;;;;;3.50;2.15;;;;;;;7.87;52.42;101866.09;5004642;28;20129;-74
2022/01/27 01:38:18;;;;;;;4.22;1.90;;;;;;;7.70;53.07;101861.66;4991142;28;20129;-73
2022/01/27 01:40:48;;;;;;;3.28;1.73;;;;;;;7.59;53.30;101861.03;4991073;28;20046;-73
2022/01/27 01:43:19;;;;;;;5.03;2.40;;;;;;;7.48;55.02;101867.22;4990312;28;20043;-77
2022/01/27 01:45:48;;;;;;;3.00;2.28;;;;;;;7.33;55.23;101854.34;5004438;28;20084;-79
2022/01/27 01:48:17;;;;;;;4.80;2.50;;;;;;;7.14;56.86;101854.88;4991552;28;20129;-73
2022/01/27 01:50:48;;;;;;;4.22;2.53;;;;;;;7.06;56.23;101856.13;5005569;28;20495;-74
2022/01/27 01:53:18;;;;;;;6.35;2.63;;;;;;;7.02;55.97;101869.59;5005687;28;20496;-75
2022/01/27 01:55:46;;;;;;;4.57;2.63;;;;;;;6.99;55.98;101870.28;4991365;28;20136;-76
2022/01/27 01:58:15;;;;;;;5.75;2.70;;;;;;;6.99;56.12;101871.97;5007566;28;20077;-77
2022/01/27 02:00:45;;;;;;;5.05;2.50;;;;;;;6.98;56.75;101870.19;5001489;28;20086;-76
2022/01/27 02:03:13;;;;;;;3.63;2.45;;;;;;;6.99;56.03;101869.41;5000000;28;20050;-76
2022/01/27 02:05:48;;;;;;;4.57;2.25;;;;;;;6.99;55.97;101865.13;5010386;28;20085;-76
2022/01/27 02:19:20;;;;;;;4.90;2.63;;;;;;;6.78;56.83;101874.06;5000982;28;20508;-73
2022/01/27 02:21:52;;;;;;;6.38;2.97;;;;;;;6.62;57.04;101879.94;5008423;28;20493;-74
2022/01/27 02:24:23;;;;;;;6.30;2.42;;;;;;;6.52;57.37;101880.16;4997472;28;20542;-75
2022/01/27 02:26:52;;;;;;;4.25;2.70;;;;;;;6.45;57.71;101874.63;4996111;28;20526;-74
2022/01/27 02:29:22;;;;;;;4.68;2.60;;;;;;;6.39;60.35;101874.25;4996101;28;20045;-73
2022/01/27 02:31:52;;;;;;;2.63;1.60;;;;;;;6.35;57.21;101877.41;4997373;28;20089;-73
2022/01/27 02:34:21;;;;;;;3.55;2.25;;;;;;;6.38;57.90;101881.84;4990398;28;20104;-73
2022/01/27 02:36:51;;;;;;;4.43;2.00;;;;;;;6.36;54.76;101876.59;4990252;28;20112;-73
2022/01/27 02:39:21;;;;;;;2.22;1.60;;;;;;;6.38;54.84;101877.59;4994368;28;20057;-75
2022/01/27 02:42:03;;;;;;;8.60;1.92;;;;;;;6.39;54.23;101874.25;4999756;28;20109;-75
2022/01/27 02:44:39;;;;;;;1.97;1.20;;;;;;;6.41;53.79;101872.63;4995206;28;20058;-73
2022/01/27 02:47:08;;;;;;;3.50;1.55;;;;;;;6.39;54.12;101873.31;5010069;28;20058;-73
2022/01/27 02:49:36;;;;;;;2.67;1.23;;;;;;;6.40;52.71;101878.59;4995159;28;20047;-73
2022/01/27 02:52:07;;;;;;;2.22;1.13;;;;;;;6.34;52.84;101874.72;4990385;28;20050;-72
2022/01/27 02:54:37;;;;;;;2.65;1.38;;;;;;;6.32;52.36;101863.44;5005223;28;20561;-74
2022/01/27 02:57:06;;;;;;;1.90;1.08;;;;;;;6.30;52.35;101873.66;5006356;28;20048;-75
2022/01/27 02:59:34;;;;;;;1.77;1.02;;;;;;;6.31;50.99;101872.84;4994114;28;20108;-75
2022/01/27 03:02:03;;;;;;;1.60;0.90;;;;;;;6.30;52.24;101878.78;5007404;28;20050;-76
2022/01/27 03:04:33;;;;;;;1.70;0.90;;;;;;;6.25;52.26;101890.44;5006095;28;20573;-74
2022/01/27 03:07:04;;;;;;;2.65;1.13;;;;;;;6.17;52.42;101900.22;4999084;28;20184;-74
2022/01/27 03:09:35;;;;;;;2.15;0.95;;;;;;;6.14;52.29;101902.59;5013879;28;20057;-74
2022/01/27 03:12:07;;;;;;;2.10;1.25;;;;;;;6.17;53.36;101912.19;5009230;28;20047;-74
2022/01/27 03:14:37;;;;;;;1.70;0.85;;;;;;;6.13;54.11;101912.78;4993479;28;20575;-73
2022/01/27 03:17:07;;;;;;;2.55;0.95;;;;;;;6.08;54.93;101915.91;4993722;28;20046;-73
2022/01/27 03:19:37;;;;;;;1.65;1.00;;;;;;;6.06;56.43;101924.31;5005818;28;20381;-75
2022/01/27 03:22:07;;;;;;;2.25;1.10;;;;;;;6.05;54.08;101923.44;5009734;28;20066;-75
2022/01/27 03:24:38;;;;;;;2.03;1.23;;;;;;;6.05;54.54;101927.69;5002246;28;20108;-75
2022/01/27 03:27:14;;;;;;;2.35;1.00;;;;;;;6.02;55.09;101925.78;5012537;28;20057;-74
2022/01/27 03:29:43;;;;;;;1.27;0.77;;;;;;;6.01;55.14;101920.56;5004194;28;20050;-73
2022/01/27 03:32:11;;;;;;;2.33;1.08;;;;;;;5.98;56.16;101926.38;5006711;28;20484;-73
2022/01/27 03:34:40;;;;;;;1.95;1.00;;;;;;;5.97;54.73;101933.97;5000610;28;20079;-74
2022/01/27 03:37:09;;;;;;;2.08;1.40;;;;;;;5.95;54.60;101935.56;5012397;28;20050;-77
2022/01/27 03:39:40;;;;;;;1.55;1.00;;;;;;;5.93;55.10;101932.84;5007056;28;20136;-74
2022/01/27 03:42:10;;;;;;;1.88;1.20;;;;;;;5.92;53.57;101925.94;5004205;28;20050;-74
2022/01/27 03:44:39;;;;;;;2.25;1.10;;;;;;;5.91;53.35;101929.31;4995108;28;20108;-74
2022/01/27 03:47:08;;;;;;;2.08;1.27;;;;;;;5.90;54.43;101927.50;5004119;28;20104;-75
2022/01/27 03:49:36;;;;;;;1.73;1.00;;;;;;;5.89;53.28;101925.75;5000321;28;20054;-73
2022/01/27 03:52:06;;;;;;;2.03;1.30;;;;;;;5.87;53.58;101932.44;5012723;28;20136;-75
2022/01/27 03:54:35;;;;;;;3.30;1.90;;;;;;;5.83;53.68;101926.19;5000487;28;20118;-75
2022/01/27 03:57:05;;;;;;;2.05;1.15;;;;;;;5.82;52.91;101924.44;5011733;28;20081;-77
2022/01/27 03:59:33;;;;;;;2.00;1.15;;;;;;;5.81;53.04;101926.88;5001446;28;20483;-76
2022/01/27 04:02:04;;;;;;;2.65;1.35;;;;;;;5.79;52.37;101928.47;5008491;28;20525;-75
2022/01/27 04:04:33;;;;;;;3.30;1.17;;;;;;;5.77;52.85;101938.66;5001122;28;20058;-76
2022/01/27 04:07:03;;;;;;;1.42;1.02;;;;;;;5.74;53.44;101928.16;4996715;28;20085;-74
2022/01/27 04:09:31;;;;;;;2.90;1.25;;;;;;;5.71;53.05;101929.63;4999821;28;20050;-73
2022/01/27 04:12:00;;;;;;;1.85;1.20;;;;;;;5.69;53.42;101928.63;4998352;28;20086;-75
2022/01/27 04:14:30;;;;;;;2.08;1.20;;;;;;;5.69;53.45;101936.34;4997749;28;20053;-76
2022/01/27 04:16:58;;;;;;;2.53;1.23;;;;;;;5.66;53.33;101930.22;5000845;28;20054;-76
2022/01/27 04:19:27;;;;;;;2.20;1.10;;;;;;;5.64;53.76;101934.34;5010833;28;20104;-76
2022/01/27 04:21:55;;;;;;;3.92;1.45;;;;;;;5.62;52.69;101928.22;5011957;28;20115;-75
2022/01/27 04:24:24;;;;;;;2.28;1.08;;;;;;;5.61;53.67;101935.81;5011870;28;20216;-78
2022/01/27 04:27:01;;;;;;;2.65;1.10;;;;;;;5.59;53.57;101932.22;5011718;28;20081;-74
2022/01/27 04:29:34;;;;;;;3.15;1.13;;;;;;;5.54;54.04;101923.34;4993018;28;20049;-72
2022/01/27 04:32:07;;;;;;;2.83;1.45;;;;;;;5.53;53.61;101935.28;5005233;28;20111;-75
2022/01/27 04:34:37;;;;;;;2.97;1.60;;;;;;;5.50;54.49;101932.53;4997580;28;20525;-73
2022/01/27 04:37:08;;;;;;;1.48;1.00;;;;;;;5.46;54.92;101933.97;4999134;28;20046;-74
2022/01/27 04:39:42;;;;;;;2.35;1.55;;;;;;;5.44;55.79;101937.22;4997159;28;20398;-74
2022/01/27 04:42:15;;;;;;;2.17;1.30;;;;;;;5.40;54.75;101946.38;5011521;28;20410;-74
2022/01/27 04:44:51;;;;;;;3.03;1.05;;;;;;;5.39;54.51;101941.16;5007555;28;20689;-74
2022/01/27 04:47:26;;;;;;;2.05;1.17;;;;;;;5.37;53.67;101942.72;4995627;28;20054;-74
2022/01/27 04:49:56;;;;;;;2.85;1.77;;;;;;;5.33;54.68;101944.16;4992416;28;20337;-74
2022/01/27 04:52:26;;;;;;;2.70;1.27;;;;;;;5.31;54.65;101947.41;5002342;28;20073;-74
2022/01/27 04:55:01;;;;;;;3.50;1.27;;;;;;;5.30;54.48;101940.50;5011432;28;20050;-74
2022/01/27 04:57:30;;;;;;;2.15;0.98;;;;;;;5.25;54.86;101938.50;5001468;28;20062;-74
2022/01/27 05:00:00;;;;;;;2.42;1.35;;;;;;;5.22;54.16;101946.00;4994085;28;20042;-76
2022/01/27 05:02:37;;;;;;;1.42;1.08;;;;;;;5.18;54.74;101941.44;5002867;28;20050;-74
2022/01/27 05:05:06;;;;;;;2.08;0.98;;;;;;;5.15;55.17;101943.75;4994445;28;20141;-76
2022/01/27 05:07:34;;;;;;;2.38;1.05;;;;;;;5.12;56.10;101951.25;5011176;28;20054;-75
2022/01/27 05:10:11;;;;;;;2.50;1.05;;;;;;;5.09;55.47;101961.31;4997038;28;20054;-74
2022/01/27 05:12:43;;;;;;;1.98;0.82;;;;;;;5.07;56.30;101962.88;4998635;28;20054;-77
2022/01/27 05:15:14;;;;;;;2.63;1.70;;;;;;;5.04;55.14;101963.56;5011068;28;20049;-77
2022/01/27 05:17:42;;;;;;;2.10;1.17;;;;;;;5.03;56.06;101961.75;5010186;28;20061;-76
2022/01/27 05:20:12;;;;;;;1.73;0.90;;;;;;;5.01;55.24;101947.03;5010645;28;20073;-77
2022/01/27 05:22:41;;;;;;;2.53;1.23;;;;;;;5.01;55.76;101952.16;5002577;28;20046;-77
2022/01/27 05:25:10;;;;;;;1.60;1.05;;;;;;;4.99;55.75;101969.13;5005346;28;20093;-76
2022/01/27 05:27:38;;;;;;;3.88;1.30;;;;;;;4.95;55.20;101962.00;4991256;28;20073;-76
2022/01/27 05:30:09;;;;;;;2.05;1.10;;;;;;;4.95;55.33;101964.59;5003038;28;20487;-78
2022/01/27 05:32:39;;;;;;;2.75;1.00;;;;;;;4.93;55.07;101973.84;4996537;28;20220;-75
2022/01/27 05:35:08;;;;;;;3.83;1.02;;;;;;;4.92;55.24;101967.78;5010721;28;20060;-76
2022/01/27 05:37:36;;;;;;;1.83;1.08;;;;;;;4.90;55.48;101969.38;5010021;28;20143;-76
2022/01/27 05:40:06;;;;;;;2.20;1.13;;;;;;;4.88;55.78;101968.38;5010558;28;20049;-74
2022/01/27 05:42:37;;;;;;;2.17;1.33;;;;;;;4.88;55.37;101976.06;4995230;28;20074;-74
2022/01/27 05:45:06;;;;;;;2.03;1.25;;;;;;;4.87;55.54;101973.38;4998918;28;20061;-77
2022/01/27 05:47:35;;;;;;;3.10;1.10;;;;;;;4.82;56.84;101988.44;5013927;28;20050;-75
2022/01/27 05:50:06;;;;;;;2.13;1.30;;;;;;;4.78;55.82;102000.13;4991184;28;20047;-76
2022/01/27 05:52:34;;;;;;;3.22;1.10;;;;;;;4.70;57.21;101991.00;5002866;28;20053;-74
2022/01/27 05:55:03;;;;;;;2.58;0.95;;;;;;;4.70;55.87;101993.56;5010586;28;20053;-75
2022/01/27 05:57:32;;;;;;;1.63;1.00;;;;;;;4.71;55.90;101995.34;5010017;28;20454;-75
2022/01/27 06:00:00;;;;;;;3.58;1.15;;;;;;;4.71;56.59;101997.03;4996891;28;20049;-78
2022/01/27 06:02:29;;;;;;;2.20;1.30;;;;;;;4.71;55.74;102007.28;5001689;28;20101;-79
2022/01/27 06:05:14;;;;;;;3.10;1.30;;;;;;;4.71;56.40;102008.16;4992097;28;20114;-79
2022/01/27 06:07:42;;;;;;;2.42;1.20;;;;;;;4.66;55.43;101999.25;5010630;28;20052;-79
2022/01/27 06:10:11;;;;;;;2.25;1.20;;;;;;;4.69;56.18;102014.84;4995134;28;20136;-76
2022/01/27 06:12:51;;;;;;;2.20;1.20;;;;;;;4.67;56.15;102011.28;4998000;28;20081;-80
2022/01/27 06:15:20;;;;;;;3.25;1.15;;;;;;;4.68;55.56;102007.06;4996341;28;20054;-80
2022/01/27 06:17:49;;;;;;;2.80;1.13;;;;;;;4.69;56.17;102004.59;5009121;28;20085;-78
2022/01/27 06:20:19;;;;;;;2.65;1.40;;;;;;;4.70;55.25;102021.78;5007257;28;20046;-77
2022/01/27 06:22:48;;;;;;;2.53;1.25;;;;;;;4.70;56.29;102006.41;4990453;28;20058;-79
2022/01/27 06:25:19;;;;;;;2.38;1.38;;;;;;;4.69;55.14;102011.41;4991802;28;20054;-78
2022/01/27 06:27:48;;;;;;;2.63;1.05;;;;;;;4.67;55.27;102013.84;5010095;28;20085;-78
2022/01/27 06:30:16;;;;;;;3.70;1.20;;;;;;;4.64;56.02;102011.06;5009067;28;20479;-77
2022/01/27 06:32:45;;;;;;;2.97;1.35;;;;;;;4.64;55.96;102016.19;4990151;28;20046;-78
2022/01/27 06:35:14;;;;;;;1.98;1.08;;;;;;;4.63;56.73;102014.41;4990412;28;20112;-78
2022/01/27 06:37:45;;;;;;;2.75;1.30;;;;;;;4.62;57.34;102017.75;5003441;28;20527;-79
2022/01/27 06:40:15;;;;;;;3.10;1.40;;;;;;;4.59;57.15;102013.28;5001420;28;20216;-82
2022/01/27 06:42:45;;;;;;;2.70;1.65;;;;;;;4.55;56.44;102018.97;4991538;28;20230;-78
2022/01/27 06:45:13;;;;;;;2.42;1.10;;;;;;;4.57;57.10;102021.66;5000114;28;20140;-78
2022/01/27 06:47:42;;;;;;;3.58;1.38;;;;;;;4.57;57.13;102021.66;4999349;28;20058;-77
2022/01/27 06:50:11;;;;;;;2.33;1.20;;;;;;;4.53;56.62;102023.06;5009892;28;20046;-78
2022/01/27 06:52:41;;;;;;;2.13;1.23;;;;;;;4.54;56.08;102026.56;5009359;28;20050;-78
2022/01/27 06:55:12;;;;;;;4.45;1.95;;;;;;;4.49;56.67;102020.19;4991196;28;20520;-78
2022/01/27 06:57:41;;;;;;;2.40;1.38;;;;;;;4.48;55.89;102023.53;5002311;28;20058;-78
2022/01/27 07:00:10;;;;;;;2.78;1.45;;;;;;;4.46;55.81;102031.09;5005276;28;20112;-76
2022/01/27 07:02:39;;;;;;;4.22;1.60;;;;;;;4.45;56.77;102029.31;4999457;28;20045;-78
2022/01/27 07:05:08;;;;;;;2.42;1.20;;;;;;;4.44;56.62;102031.75;5005999;28;20485;-77
2022/01/27 07:07:36;;;;;;;3.17;1.50;;;;;;;4.45;56.74;102038.69;4999547;28;20049;-77
2022/01/27 07:10:05;;;;;;;2.38;1.52;;;;;;;4.44;56.82;102031.75;5009523;28;20062;-77
2022/01/27 07:12:35;;;;;;;2.40;1.13;;;;;;;4.45;55.88;102037.00;5001020;28;20058;-77
2022/01/27 07:15:04;;;;;;;2.58;1.42;;;;;;;4.44;56.62;102035.22;5002864;28;20096;-78
2022/01/27 07:17:33;;;;;;;2.72;1.40;;;;;;;4.39;57.34;102040.00;5008906;28;20054;-78
2022/01/27 07:20:01;;;;;;;2.92;1.23;;;;;;;4.39;58.22;102037.44;5009315;28;20081;-78
2022/01/27 07:22:32;;;;;;;3.30;1.70;;;;;;;4.38;56.01;102043.34;4995703;28;20116;-78
2022/01/27 07:25:00;;;;;;;4.45;1.67;;;;;;;4.38;55.70;102037.34;5009995;28;20049;-78
2022/01/27 07:27:30;;;;;;;2.55;1.52;;;;;;;4.37;56.58;102046.66;5008581;28;20116;-77
2022/01/27 07:30:01;;;;;;;2.80;1.27;;;;;;;4.26;57.56;102018.47;5009669;28;20081;-78
2022/01/27 07:32:30;;;;;;;2.97;1.73;;;;;;;4.37;57.09;102038.97;4994542;28;20054;-78
2022/01/27 07:34:58;;;;;;;3.88;1.70;;;;;;;4.39;56.51;102040.00;5009985;28;20049;-78
2022/01/27 07:37:27;;;;;;;3.45;1.65;;;;;;;4.41;56.14;102048.69;5008495;28;20058;-78
2022/01/27 07:39:55;;;;;;;4.30;1.65;;;;;;;4.41;56.96;102047.81;5003029;28;20526;-78
2022/01/27 07:42:24;;;;;;;2.95;1.38;;;;;;;4.42;57.35;102049.56;5004905;28;20108;-78
2022/01/27 07:44:52;;;;;;;3.70;1.73;;;;;;;4.40;56.17;102044.34;4999407;28;20042;-78
2022/01/27 07:47:22;;;;;;;2.65;1.30;;;;;;;4.41;57.02;102050.38;5005417;28;20042;-78
2022/01/27 07:49:50;;;;;;;3.17;1.50;;;;;;;4.38;55.78;102045.91;5011788;28;20088;-78
2022/01/27 07:52:20;;;;;;;4.03;1.58;;;;;;;4.38;55.88;102048.47;5002969;28;20564;-77
2022/01/27 07:54:49;;;;;;;3.47;1.80;;;;;;;4.39;56.33;102046.78;5009406;28;20418;-78
2022/01/27 07:57:17;;;;;;;3.08;1.65;;;;;;;4.38;56.58;102058.72;5004469;28;20147;-78
2022/01/27 07:59:46;;;;;;;4.93;1.80;;;;;;;4.38;56.79;102053.59;5009640;28;20072;-78
2022/01/27 08:02:14;;;;;;;5.13;1.77;;;;;;;4.35;57.29;102053.38;4994411;28;20042;-79
2022/01/27 08:04:46;;;;;;;5.50;1.80;;;;;;;4.34;56.66;102051.56;5005734;28;20054;-80
2022/01/27 08:07:15;;;;;;;4.18;2.10;;;;;;;4.33;56.23;102043.75;4998859;28;20057;-79
2022/01/27 08:09:44;;;;;;;4.25;1.88;;;;;;;4.34;55.76;102051.56;5013429;28;20054;-79
2022/01/27 08:12:13;;;;;;;4.35;1.90;;;;;;;4.34;56.34;102051.56;5008545;28;20113;-79
2022/01/27 08:14:41;;;;;;;3.63;1.92;;;;;;;4.35;55.89;102052.47;4993354;28;20046;-78
2022/01/27 08:17:10;;;;;;;5.10;1.73;;;;;;;4.35;56.36;102050.81;5006133;28;20049;-78
2022/01/27 08:19:38;;;;;;;3.25;1.95;;;;;;;4.35;56.84;102058.50;5005565;28;20080;-78
2022/01/27 08:22:10;;;;;;;3.42;1.65;;;;;;;4.35;55.83;102042.22;4994962;28;20073;-78
2022/01/27 08:24:39;;;;;;;4.70;1.70;;;;;;;4.35;55.91;102053.38;4993192;28;20488;-79
2022/01/27 08:27:09;;;;;;;4.00;1.77;;;;;;;4.34;55.32;102051.56;5008969;28;20061;-78
2022/01/27 08:29:41;;;;;;;4.10;1.98;;;;;;;4.35;55.93;102057.59;5012111;28;20049;-79
2022/01/27 08:32:16;;;;;;;6.03;2.13;;;;;;;4.37;55.68;102059.47;4998126;28;20046;-79
2022/01/27 08:34:45;;;;;;;4.28;1.73;;;;;;;4.37;55.88;102049.22;5004302;28;20295;-79
2022/01/27 08:37:17;;;;;;;4.28;1.80;;;;;;;4.32;57.03;102053.13;5006095;28;20085;-77
2022/01/27 08:39:46;;;;;;;3.33;1.67;;;;;;;4.30;57.11;102059.81;5012699;28;20054;-77
2022/01/27 08:42:15;;;;;;;4.03;1.90;;;;;;;4.31;56.55;102056.47;5011953;28;20078;-78
2022/01/27 08:44:44;;;;;;;4.35;1.92;;;;;;;4.32;55.49;102053.13;4996473;28;20049;-77
2022/01/27 08:47:15;;;;;;;4.65;2.05;;;;;;;4.32;56.00;102058.25;5015151;28;20076;-77
2022/01/27 08:49:46;;;;;;;5.55;2.15;;;;;;;4.29;56.35;102052.91;5012234;28;20519;-78
2022/01/27 08:52:16;;;;;;;4.60;2.00;;;;;;;4.32;56.79;102057.38;4992021;28;20046;-77
2022/01/27 08:54:44;;;;;;;5.60;1.73;;;;;;;4.30;56.33;102054.69;5006569;28;20108;-77
2022/01/27 08:57:13;;;;;;;4.07;1.90;;;;;;;4.30;56.56;102052.13;4998083;28;20546;-78
2022/01/27 08:59:41;;;;;;;3.72;1.90;;;;;;;4.29;55.38;102047.78;5000454;28;20081;-78
2022/01/27 09:02:10;;;;;;;4.32;1.85;;;;;;;4.30;55.86;102044.44;5005817;28;20561;-78
2022/01/27 09:04:39;;;;;;;4.50;1.52;;;;;;;4.30;56.07;102054.69;5002245;28;20046;-78
2022/01/27 09:07:08;;;;;;;2.97;1.50;;;;;;;4.29;56.50;102052.91;5011423;28;20049;-77
2022/01/27 09:09:38;;;;;;;4.85;2.63;;;;;;;4.28;56.42;102051.09;5003659;28;20109;-78
2022/01/27 09:12:07;;;;;;;3.78;2.42;;;;;;;4.29;56.71;102046.91;5005115;28;20108;-78
2022/01/27 09:14:35;;;;;;;3.58;1.95;;;;;;;4.26;56.47;102045.00;4992354;28;20065;-77
2022/01/27 09:17:04;;;;;;;4.40;1.98;;;;;;;4.24;56.83;102053.31;5005390;28;20135;-76
2022/01/27 09:19:37;;;;;;;3.58;1.77;;;;;;;4.14;55.95;102027.00;5010373;28;20053;-77
2022/01/27 09:22:08;;;;;;;;;;;;;;;4.25;56.50;102039.75;5011847;28;20054;-77
2022/01/27 09:24:41;;;;;;;4.13;1.60;;;;;;;4.21;56.27;102051.41;5011537;28;19927;-77
2022/01/27 09:27:10;;;;;;;2.92;1.52;;;;;;;4.19;56.74;102060.66;5009120;28;20078;-78
2022/01/27 09:29:39;;;;;;;4.40;2.35;;;;;;;4.16;56.42;102050.19;4999718;28;20053;-77
2022/01/27 09:32:09;;;;;;;6.57;2.72;;;;;;;4.12;56.88;102059.31;4997141;28;20053;-77
2022/01/27 09:34:37;;;;;;;3.33;1.88;;;;;;;4.15;56.73;102062.09;5004326;28;20051;-77
2022/01/27 09:37:07;;;;;;;8.57;2.47;;;;;;;4.14;56.22;102068.00;5004578;28;20210;-77
2022/01/27 09:39:38;;;;;;;4.03;2.17;;;;;;;4.14;57.57;102073.13;5005678;28;20073;-76
2022/01/27 09:42:08;;;;;;;4.45;2.08;;;;;;;4.14;57.23;102074.78;4991719;28;20132;-77
2022/01/27 09:44:40;;;;;;;4.93;1.88;;;;;;;4.12;57.61;102063.53;4996774;28;20050;-77
2022/01/27 09:47:12;;;;;;;4.23;1.70;;;;;;;4.10;57.13;102077.88;5012646;28;20104;-77
2022/01/27 09:49:43;;;;;;;4.87;2.00;;;;;;;4.10;57.44;102085.56;5014584;28;20322;-76
2022/01/27 09:52:12;;;;;;;5.05;2.13;;;;;;;4.11;57.61;102088.25;5002236;28;20078;-76
2022/01/27 09:54:44;;;;;;;5.43;2.03;;;;;;;4.11;57.52;102092.50;5007932;28;20105;-77
2022/01/27 09:57:16;;;;;;;4.63;1.83;;;;;;;4.11;56.72;102095.06;5011220;28;20112;-77
2022/01/27 09:59:45;;;;;;;3.88;1.80;;;;;;;4.10;57.52;102101.84;5009412;28;20046;-77
2022/01/27 10:02:18;;;;;;;6.15;2.10;;;;;;;4.07;58.36;102096.47;4990787;28;20054;-77
2022/01/27 10:04:48;;;;;;;2.88;1.65;;;;;;;4.04;58.90;102100.47;5006342;28;20184;-76
2022/01/27 10:07:18;;;;;;;4.65;1.75;;;;;;;3.99;57.95;102095.91;4999060;28;20054;-76
2022/01/27 10:10:07;;;;;;;3.20;1.50;;;;;;;3.98;58.36;102101.78;5001981;28;20043;-78
2022/01/27 10:12:40;;;;;;;3.97;1.80;;;;;;;3.97;57.52;102109.34;5007321;28;20508;-77
2022/01/27 10:15:11;;;;;;;3.80;1.65;;;;;;;3.97;58.65;102105.13;4996952;28;20045;-77
2022/01/27 10:17:40;;;;;;;4.93;2.15;;;;;;;3.96;57.97;102103.34;4999866;28;20496;-78
2022/01/27 10:20:21;;;;;;;3.28;1.88;;;;;;;3.94;57.44;102102.34;5007915;28;20046;-77
2022/01/27 10:23:11;;;;;;;4.07;1.70;;;;;;;3.93;57.53;102097.97;4999570;28;20419;-77
2022/01/27 10:25:49;;;;;;;3.95;1.77;;;;;;;3.92;57.73;102100.44;4997118;28;20125;-77
2022/01/27 10:28:42;;;;;;;4.00;1.60;;;;;;;3.92;57.47;102100.44;4996864;28;20105;-77
2022/01/27 10:31:18;;;;;;;3.15;1.52;;;;;;;3.91;58.67;102114.88;4990752;28;20153;-78
2022/01/27 10:33:50;;;;;;;2.38;1.30;;;;;;;3.90;57.82;102107.97;5005830;28;20061;-77
2022/01/27 10:36:23;;;;;;;5.03;2.00;;;;;;;3.91;58.60;102103.75;5010293;28;20060;-77
2022/01/27 10:38:55;;;;;;;4.32;1.73;;;;;;;3.90;58.83;102104.53;5010193;28;20060;-77
2022/01/27 10:41:26;;;;;;;3.45;1.50;;;;;;;3.90;58.03;102101.97;5001770;28;20496;-77
2022/01/27 10:44:07;;;;;;;5.82;1.70;;;;;;;3.87;57.94;102094.94;4992248;28;20519;-77
2022/01/27 10:46:39;;;;;;;4.78;1.45;;;;;;;3.88;58.03;102101.84;5010305;28;20078;-77
2022/01/27 10:49:12;;;;;;;1.97;1.17;;;;;;;3.88;58.41;102091.59;4997546;28;20046;-78
2022/01/27 10:51:45;;;;;;;3.42;1.52;;;;;;;3.88;57.83;102093.28;5000024;28;20053;-79
2022/01/27 10:54:22;;;;;;;2.65;1.20;;;;;;;3.87;57.83;102086.34;5008693;28;20053;-77
2022/01/27 10:56:52;;;;;;;5.50;2.03;;;;;;;3.86;59.20;102087.13;4999953;28;20139;-77
2022/01/27 10:59:22;;;;;;;4.75;1.58;;;;;;;3.84;58.15;102093.81;5009728;28;20061;-78
2022/01/27 11:01:51;;;;;;;3.47;1.55;;;;;;;3.83;58.59;102098.03;5010162;28;20046;-78
2022/01/27 11:04:21;;;;;;;3.10;1.30;;;;;;;3.82;58.26;102103.91;5010230;28;20050;-77
2022/01/27 11:07:01;;;;;;;3.33;1.60;;;;;;;3.83;57.85;102102.28;5010225;28;20139;-77
2022/01/27 11:09:33;;;;;;;2.72;1.75;;;;;;;3.81;59.34;102107.25;5010269;28;20085;-79
2022/01/27 11:12:08;;;;;;;4.57;1.48;;;;;;;3.78;58.47;102117.28;5009794;28;20137;-78
2022/01/27 11:14:37;;;;;;;6.03;2.00;;;;;;;3.77;59.25;102123.16;4995931;28;20050;-77
2022/01/27 11:17:07;;;;;;;2.78;1.40;;;;;;;3.77;58.07;102121.47;5012781;28;20085;-77
2022/01/27 11:22:41;;;;;;;3.50;1.80;;;;;;;3.75;58.38;102122.13;5005797;28;20046;-77
2022/01/27 11:27:58;;;;;;;4.10;1.98;;;;;;;3.73;58.69;102118.56;5013294;28;20053;-78
2022/01/27 11:30:35;;;;;;;4.35;2.13;;;;;;;3.72;58.62;102121.91;4999466;28;20137;-78
2022/01/27 11:33:05;;;;;;;5.28;1.92;;;;;;;3.72;59.35;102124.47;5013120;28;20060;-78
2022/01/27 11:35:34;;;;;;;4.95;1.85;;;;;;;3.72;59.66;102124.47;5013524;28;20042;-78
2022/01/27 11:38:04;;;;;;;4.07;1.92;;;;;;;3.72;59.11;102121.91;5013657;28;20076;-78
2022/01/27 11:40:38;;;;;;;3.00;1.60;;;;;;;3.73;58.04;102118.56;5003174;28;20476;-78
2022/01/27 11:43:10;;;;;;;4.65;2.05;;;;;;;3.73;59.09;102116.91;4997869;28;20058;-78
2022/01/27 11:45:43;;;;;;;4.05;1.52;;;;;;;3.72;58.84;102122.78;5014053;28;20050;-77
2022/01/27 11:48:15;;;;;;;5.28;1.90;;;;;;;3.72;59.18;102114.22;5010141;28;20058;-78
2022/01/27 11:50:54;;;;;;;3.72;1.55;;;;;;;3.71;58.51;102109.84;4996846;28;20054;-78
2022/01/27 11:53:41;;;;;;;3.78;1.58;;;;;;;3.70;58.66;102119.22;5008349;28;20057;-78
2022/01/27 11:56:15;;;;;;;5.35;1.83;;;;;;;3.70;58.86;102123.44;5006634;28;20049;-77
2022/01/27 11:58:47;;;;;;;5.95;2.15;;;;;;;3.65;59.33;102119.63;4998768;28;20063;-77
2022/01/27 12:01:22;;;;;;;3.33;1.55;;;;;;;3.66;59.88;102111.16;5001572;28;20124;-78
2022/01/27 12:04:13;;;;;;;4.90;1.60;;;;;;;3.64;58.12;102105.03;5011352;28;20049;-78
2022/01/27 12:06:42;;;;;;;3.85;1.50;;;;;;;3.64;58.46;102108.50;5009120;28;20048;-77
2022/01/27 12:09:33;;;;;;;4.07;2.28;;;;;;;3.62;59.98;102114.25;4998455;28;20073;-78
2022/01/27 12:12:06;;;;;;;3.92;1.42;;;;;;;3.60;58.64;102121.84;5008911;28;20085;-77
2022/01/27 12:15:07;;;;;;;4.22;2.10;;;;;;;3.46;58.98;102100.25;4998015;28;20129;-78
2022/01/27 12:17:36;;;;;;;4.57;1.90;;;;;;;3.58;59.96;102120.81;5004338;28;20050;-77
2022/01/27 12:20:08;;;;;;;3.22;1.58;;;;;;;3.59;59.74;102122.59;5008077;28;20050;-77
2022/01/27 12:23:15;;;;;;;5.05;1.98;;;;;;;3.60;58.97;102120.91;5003376;28;20123;-77
2022/01/27 12:25:48;;;;;;;3.90;2.05;;;;;;;3.55;59.27;102118.00;5012382;28;20046;-77
2022/01/27 12:28:16;;;;;;;3.85;1.83;;;;;;;3.58;59.65;102130.16;4997830;28;20050;-77